sensor_id;sensor_type;location;lat;lon;timestamp;P1;durP1;ratioP1;P2;durP2;ratioP2
17197;SDS011;8715;51.010;6.812;2023-06-14T00:00:39;924.92;;;858.10;;
17197;SDS011;8715;51.010;6.812;2023-06-14T00:03:26;922.42;;;855.70;;
17197;SDS011;8715;51.010;6.812;2023-06-14T00:06:12;923.03;;;856.55;;
17197;SDS011;8715;51.010;6.812;2023-06-14T00:08:57;919.35;;;853.03;;
17197;SDS011;8715;51.010;6.812;2023-06-14T00:11:44;923.97;;;857.28;;
17197;SDS011;8715;51.010;6.812;2023-06-14T00:14:29;920.28;;;853.60;;
17197;SDS011;8715;51.010;6.812;2023-06-14T00:17:15;924.45;;;857.38;;
17197;SDS011;8715;51.010;6.812;2023-06-14T00:20:01;922.90;;;856.42;;
17197;SDS011;8715;51.010;6.812;2023-06-14T00:22:48;923.67;;;857.47;;
17197;SDS011;8715;51.010;6.812;2023-06-14T00:25:34;920.22;;;854.90;;
17197;SDS011;8715;51.010;6.812;2023-06-14T00:28:20;915.70;;;851.10;;
17197;SDS011;8715;51.010;6.812;2023-06-14T00:31:06;921.58;;;856.08;;
17197;SDS011;8715;51.010;6.812;2023-06-14T00:33:51;914.80;;;850.38;;
17197;SDS011;8715;51.010;6.812;2023-06-14T00:36:36;917.53;;;852.38;;
17197;SDS011;8715;51.010;6.812;2023-06-14T00:39:22;916.28;;;851.13;;
17197;SDS011;8715;51.010;6.812;2023-06-14T00:42:07;919.58;;;854.72;;
17197;SDS011;8715;51.010;6.812;2023-06-14T00:44:54;916.38;;;851.55;;
17197;SDS011;8715;51.010;6.812;2023-06-14T00:47:40;914.85;;;850.08;;
17197;SDS011;8715;51.010;6.812;2023-06-14T00:50:26;915.75;;;850.70;;
17197;SDS011;8715;51.010;6.812;2023-06-14T00:53:11;920.25;;;855.53;;
17197;SDS011;8715;51.010;6.812;2023-06-14T00:55:59;919.25;;;854.30;;
17197;SDS011;8715;51.010;6.812;2023-06-14T00:58:45;915.50;;;851.15;;
17197;SDS011;8715;51.010;6.812;2023-06-14T01:01:31;920.67;;;856.10;;
17197;SDS011;8715;51.010;6.812;2023-06-14T01:04:17;921.13;;;856.30;;
17197;SDS011;8715;51.010;6.812;2023-06-14T01:07:11;919.33;;;854.55;;
17197;SDS011;8715;51.010;6.812;2023-06-14T01:10:07;914.97;;;850.55;;
17197;SDS011;8715;51.010;6.812;2023-06-14T01:12:58;916.33;;;852.10;;
17197;SDS011;8715;51.010;6.812;2023-06-14T01:15:50;914.92;;;850.85;;
17197;SDS011;8715;51.010;6.812;2023-06-14T01:18:37;918.45;;;854.13;;
17197;SDS011;8715;51.010;6.812;2023-06-14T01:21:22;908.47;;;845.25;;
17197;SDS011;8715;51.010;6.812;2023-06-14T01:24:09;915.15;;;851.88;;
17197;SDS011;8715;51.010;6.812;2023-06-14T01:26:54;908.38;;;845.33;;
17197;SDS011;8715;51.010;6.812;2023-06-14T01:29:40;910.50;;;847.35;;
17197;SDS011;8715;51.010;6.812;2023-06-14T01:32:29;914.13;;;851.17;;
17197;SDS011;8715;51.010;6.812;2023-06-14T01:35:15;911.90;;;848.33;;
17197;SDS011;8715;51.010;6.812;2023-06-14T01:38:00;911.10;;;847.75;;
17197;SDS011;8715;51.010;6.812;2023-06-14T01:40:47;911.53;;;848.22;;
17197;SDS011;8715;51.010;6.812;2023-06-14T01:46:19;907.08;;;844.78;;
17197;SDS011;8715;51.010;6.812;2023-06-14T01:49:05;906.67;;;844.20;;
17197;SDS011;8715;51.010;6.812;2023-06-14T01:51:50;907.53;;;844.92;;
17197;SDS011;8715;51.010;6.812;2023-06-14T01:54:36;909.00;;;846.33;;
17197;SDS011;8715;51.010;6.812;2023-06-14T01:57:27;907.53;;;845.00;;
17197;SDS011;8715;51.010;6.812;2023-06-14T02:00:13;908.95;;;845.90;;
17197;SDS011;8715;51.010;6.812;2023-06-14T02:02:59;908.50;;;845.97;;
17197;SDS011;8715;51.010;6.812;2023-06-14T02:05:45;911.45;;;848.08;;
17197;SDS011;8715;51.010;6.812;2023-06-14T02:08:30;908.70;;;846.00;;
17197;SDS011;8715;51.010;6.812;2023-06-14T02:11:16;907.40;;;844.97;;
17197;SDS011;8715;51.010;6.812;2023-06-14T02:14:02;907.65;;;845.38;;
17197;SDS011;8715;51.010;6.812;2023-06-14T02:16:48;906.25;;;844.33;;
17197;SDS011;8715;51.010;6.812;2023-06-14T02:19:33;907.08;;;845.17;;
17197;SDS011;8715;51.010;6.812;2023-06-14T02:22:19;907.63;;;845.78;;
17197;SDS011;8715;51.010;6.812;2023-06-14T02:25:05;904.90;;;843.38;;
17197;SDS011;8715;51.010;6.812;2023-06-14T02:27:51;902.63;;;840.78;;
17197;SDS011;8715;51.010;6.812;2023-06-14T02:30:38;908.53;;;846.58;;
17197;SDS011;8715;51.010;6.812;2023-06-14T02:33:24;905.38;;;843.83;;
17197;SDS011;8715;51.010;6.812;2023-06-14T02:36:10;907.92;;;846.47;;
17197;SDS011;8715;51.010;6.812;2023-06-14T02:38:55;901.08;;;839.50;;
17197;SDS011;8715;51.010;6.812;2023-06-14T02:41:42;901.63;;;840.50;;
17197;SDS011;8715;51.010;6.812;2023-06-14T02:44:27;901.25;;;839.70;;
17197;SDS011;8715;51.010;6.812;2023-06-14T02:47:13;902.55;;;841.78;;
17197;SDS011;8715;51.010;6.812;2023-06-14T02:49:59;902.25;;;841.22;;
17197;SDS011;8715;51.010;6.812;2023-06-14T02:52:44;904.13;;;842.97;;
17197;SDS011;8715;51.010;6.812;2023-06-14T02:55:29;906.38;;;844.97;;
17197;SDS011;8715;51.010;6.812;2023-06-14T02:58:15;898.60;;;838.55;;
17197;SDS011;8715;51.010;6.812;2023-06-14T03:01:02;902.28;;;841.63;;
17197;SDS011;8715;51.010;6.812;2023-06-14T03:03:50;904.90;;;844.35;;
17197;SDS011;8715;51.010;6.812;2023-06-14T03:06:35;899.22;;;839.03;;
17197;SDS011;8715;51.010;6.812;2023-06-14T03:09:21;896.13;;;836.63;;
17197;SDS011;8715;51.010;6.812;2023-06-14T03:12:06;895.75;;;836.13;;
17197;SDS011;8715;51.010;6.812;2023-06-14T03:14:53;901.97;;;841.97;;
17197;SDS011;8715;51.010;6.812;2023-06-14T03:17:40;898.85;;;838.92;;
17197;SDS011;8715;51.010;6.812;2023-06-14T03:20:30;901.63;;;841.10;;
17197;SDS011;8715;51.010;6.812;2023-06-14T03:23:16;901.58;;;841.30;;
17197;SDS011;8715;51.010;6.812;2023-06-14T03:26:01;897.25;;;837.10;;
17197;SDS011;8715;51.010;6.812;2023-06-14T03:28:47;898.20;;;838.50;;
17197;SDS011;8715;51.010;6.812;2023-06-14T03:31:33;894.08;;;834.58;;
17197;SDS011;8715;51.010;6.812;2023-06-14T03:34:19;899.75;;;839.75;;
17197;SDS011;8715;51.010;6.812;2023-06-14T03:37:05;898.15;;;837.95;;
17197;SDS011;8715;51.010;6.812;2023-06-14T03:39:50;903.25;;;842.15;;
17197;SDS011;8715;51.010;6.812;2023-06-14T03:42:36;902.45;;;841.33;;
17197;SDS011;8715;51.010;6.812;2023-06-14T03:45:21;907.30;;;845.55;;
17197;SDS011;8715;51.010;6.812;2023-06-14T03:48:08;905.50;;;843.63;;
17197;SDS011;8715;51.010;6.812;2023-06-14T03:50:53;910.50;;;847.67;;
17197;SDS011;8715;51.010;6.812;2023-06-14T03:53:40;912.33;;;848.38;;
17197;SDS011;8715;51.010;6.812;2023-06-14T03:56:26;915.58;;;850.47;;
17197;SDS011;8715;51.010;6.812;2023-06-14T03:59:11;919.92;;;853.80;;
17197;SDS011;8715;51.010;6.812;2023-06-14T04:01:56;929.47;;;861.33;;
17197;SDS011;8715;51.010;6.812;2023-06-14T04:04:42;933.55;;;864.05;;
17197;SDS011;8715;51.010;6.812;2023-06-14T04:07:28;933.33;;;863.38;;
17197;SDS011;8715;51.010;6.812;2023-06-14T04:10:15;943.05;;;871.20;;
17197;SDS011;8715;51.010;6.812;2023-06-14T04:13:00;944.17;;;871.20;;
17197;SDS011;8715;51.010;6.812;2023-06-14T04:15:46;947.83;;;873.50;;
17197;SDS011;8715;51.010;6.812;2023-06-14T04:18:31;954.80;;;879.17;;
17197;SDS011;8715;51.010;6.812;2023-06-14T04:21:16;957.97;;;880.63;;
17197;SDS011;8715;51.010;6.812;2023-06-14T04:24:02;962.20;;;883.65;;
17197;SDS011;8715;51.010;6.812;2023-06-14T04:26:49;965.25;;;885.25;;
17197;SDS011;8715;51.010;6.812;2023-06-14T04:29:35;967.83;;;887.08;;
17197;SDS011;8715;51.010;6.812;2023-06-14T04:32:20;971.00;;;889.17;;
17197;SDS011;8715;51.010;6.812;2023-06-14T04:35:07;971.70;;;889.08;;
17197;SDS011;8715;51.010;6.812;2023-06-14T04:37:53;980.88;;;896.25;;
17197;SDS011;8715;51.010;6.812;2023-06-14T04:40:38;979.55;;;894.75;;
17197;SDS011;8715;51.010;6.812;2023-06-14T04:43:27;981.28;;;895.53;;
17197;SDS011;8715;51.010;6.812;2023-06-14T04:46:13;986.90;;;900.10;;
17197;SDS011;8715;51.010;6.812;2023-06-14T04:48:58;987.05;;;899.53;;
17197;SDS011;8715;51.010;6.812;2023-06-14T04:51:46;987.15;;;899.30;;
17197;SDS011;8715;51.010;6.812;2023-06-14T04:54:34;993.78;;;904.45;;
17197;SDS011;8715;51.010;6.812;2023-06-14T04:57:20;991.97;;;902.28;;
17197;SDS011;8715;51.010;6.812;2023-06-14T05:00:08;993.70;;;903.28;;
17197;SDS011;8715;51.010;6.812;2023-06-14T05:02:55;993.65;;;902.53;;
17197;SDS011;8715;51.010;6.812;2023-06-14T05:05:40;998.72;;;906.58;;
17197;SDS011;8715;51.010;6.812;2023-06-14T05:08:26;1004.13;;;911.40;;
17197;SDS011;8715;51.010;6.812;2023-06-14T05:11:11;1002.28;;;908.83;;
17197;SDS011;8715;51.010;6.812;2023-06-14T05:13:57;1002.97;;;908.08;;
17197;SDS011;8715;51.010;6.812;2023-06-14T05:16:44;1008.92;;;913.22;;
17197;SDS011;8715;51.010;6.812;2023-06-14T05:19:30;1009.03;;;912.58;;
17197;SDS011;8715;51.010;6.812;2023-06-14T05:22:15;1008.08;;;910.95;;
17197;SDS011;8715;51.010;6.812;2023-06-14T05:25:00;1009.05;;;912.47;;
17197;SDS011;8715;51.010;6.812;2023-06-14T05:27:46;1008.38;;;912.15;;
17197;SDS011;8715;51.010;6.812;2023-06-14T05:30:31;1012.40;;;915.88;;
17197;SDS011;8715;51.010;6.812;2023-06-14T05:33:18;1007.92;;;911.80;;
17197;SDS011;8715;51.010;6.812;2023-06-14T05:36:03;1007.33;;;911.80;;
17197;SDS011;8715;51.010;6.812;2023-06-14T05:38:49;1002.58;;;908.10;;
17197;SDS011;8715;51.010;6.812;2023-06-14T05:41:41;1001.53;;;907.17;;
17197;SDS011;8715;51.010;6.812;2023-06-14T05:44:26;1002.58;;;908.80;;
17197;SDS011;8715;51.010;6.812;2023-06-14T05:47:11;1001.00;;;907.42;;
17197;SDS011;8715;51.010;6.812;2023-06-14T05:49:58;999.38;;;906.13;;
17197;SDS011;8715;51.010;6.812;2023-06-14T05:52:44;999.50;;;906.20;;
17197;SDS011;8715;51.010;6.812;2023-06-14T05:55:29;1001.92;;;908.75;;
17197;SDS011;8715;51.010;6.812;2023-06-14T05:58:14;998.60;;;905.70;;
17197;SDS011;8715;51.010;6.812;2023-06-14T06:01:00;1001.22;;;908.22;;
17197;SDS011;8715;51.010;6.812;2023-06-14T06:03:46;1000.53;;;907.55;;
17197;SDS011;8715;51.010;6.812;2023-06-14T06:06:32;1000.90;;;907.63;;
17197;SDS011;8715;51.010;6.812;2023-06-14T06:09:19;1000.65;;;907.63;;
17197;SDS011;8715;51.010;6.812;2023-06-14T06:12:06;1003.10;;;910.08;;
17197;SDS011;8715;51.010;6.812;2023-06-14T06:14:51;999.05;;;905.97;;
17197;SDS011;8715;51.010;6.812;2023-06-14T06:17:37;1005.10;;;912.03;;
17197;SDS011;8715;51.010;6.812;2023-06-14T06:20:22;997.42;;;905.38;;
17197;SDS011;8715;51.010;6.812;2023-06-14T06:23:13;994.42;;;903.50;;
17197;SDS011;8715;51.010;6.812;2023-06-14T06:25:58;991.53;;;901.67;;
17197;SDS011;8715;51.010;6.812;2023-06-14T06:28:43;989.15;;;900.25;;
17197;SDS011;8715;51.010;6.812;2023-06-14T06:31:29;987.67;;;900.88;;
17197;SDS011;8715;51.010;6.812;2023-06-14T06:34:14;981.33;;;895.35;;
17197;SDS011;8715;51.010;6.812;2023-06-14T06:36:59;979.50;;;894.65;;
17197;SDS011;8715;51.010;6.812;2023-06-14T06:39:46;977.88;;;894.10;;
17197;SDS011;8715;51.010;6.812;2023-06-14T06:42:31;974.28;;;891.58;;
17197;SDS011;8715;51.010;6.812;2023-06-14T06:45:16;973.15;;;890.78;;
17197;SDS011;8715;51.010;6.812;2023-06-14T06:48:02;970.30;;;888.47;;
17197;SDS011;8715;51.010;6.812;2023-06-14T06:50:48;968.42;;;887.38;;
17197;SDS011;8715;51.010;6.812;2023-06-14T06:53:33;969.03;;;887.90;;
17197;SDS011;8715;51.010;6.812;2023-06-14T06:56:20;970.28;;;889.45;;
17197;SDS011;8715;51.010;6.812;2023-06-14T06:59:07;964.28;;;883.70;;
17197;SDS011;8715;51.010;6.812;2023-06-14T07:01:52;967.60;;;886.92;;
17197;SDS011;8715;51.010;6.812;2023-06-14T07:04:37;966.38;;;885.83;;
17197;SDS011;8715;51.010;6.812;2023-06-14T07:07:23;965.15;;;885.17;;
17197;SDS011;8715;51.010;6.812;2023-06-14T07:10:08;967.00;;;887.28;;
17197;SDS011;8715;51.010;6.812;2023-06-14T07:12:55;963.63;;;884.03;;
17197;SDS011;8715;51.010;6.812;2023-06-14T07:15:40;965.97;;;886.22;;
17197;SDS011;8715;51.010;6.812;2023-06-14T07:18:26;962.72;;;883.30;;
17197;SDS011;8715;51.010;6.812;2023-06-14T07:21:11;965.58;;;885.53;;
17197;SDS011;8715;51.010;6.812;2023-06-14T07:23:56;968.90;;;888.08;;
17197;SDS011;8715;51.010;6.812;2023-06-14T07:26:42;965.05;;;884.58;;
17197;SDS011;8715;51.010;6.812;2023-06-14T07:29:28;965.67;;;885.13;;
17197;SDS011;8715;51.010;6.812;2023-06-14T07:32:14;970.65;;;890.05;;
17197;SDS011;8715;51.010;6.812;2023-06-14T07:34:59;965.75;;;885.85;;
17197;SDS011;8715;51.010;6.812;2023-06-14T07:37:45;963.65;;;883.33;;
17197;SDS011;8715;51.010;6.812;2023-06-14T07:40:30;964.00;;;883.78;;
17197;SDS011;8715;51.010;6.812;2023-06-14T07:43:16;964.63;;;884.40;;
17197;SDS011;8715;51.010;6.812;2023-06-14T07:46:02;966.88;;;886.30;;
17197;SDS011;8715;51.010;6.812;2023-06-14T07:48:48;964.70;;;884.10;;
17197;SDS011;8715;51.010;6.812;2023-06-14T07:51:33;967.08;;;886.05;;
17197;SDS011;8715;51.010;6.812;2023-06-14T07:54:18;971.78;;;889.90;;
17197;SDS011;8715;51.010;6.812;2023-06-14T07:57:04;973.75;;;891.45;;
17197;SDS011;8715;51.010;6.812;2023-06-14T07:59:50;966.72;;;885.38;;
17197;SDS011;8715;51.010;6.812;2023-06-14T08:02:36;968.95;;;887.72;;
17197;SDS011;8715;51.010;6.812;2023-06-14T08:05:21;969.60;;;888.00;;
17197;SDS011;8715;51.010;6.812;2023-06-14T08:08:07;966.67;;;885.83;;
17197;SDS011;8715;51.010;6.812;2023-06-14T08:10:52;966.80;;;885.95;;
17197;SDS011;8715;51.010;6.812;2023-06-14T08:13:37;968.25;;;887.53;;
17197;SDS011;8715;51.010;6.812;2023-06-14T08:16:23;967.75;;;887.22;;
17197;SDS011;8715;51.010;6.812;2023-06-14T08:19:09;964.10;;;883.92;;
17197;SDS011;8715;51.010;6.812;2023-06-14T08:21:55;967.25;;;886.85;;
17197;SDS011;8715;51.010;6.812;2023-06-14T08:24:41;968.85;;;888.20;;
17197;SDS011;8715;51.010;6.812;2023-06-14T08:27:26;967.42;;;886.80;;
17197;SDS011;8715;51.010;6.812;2023-06-14T08:30:12;967.10;;;886.60;;
17197;SDS011;8715;51.010;6.812;2023-06-14T08:32:58;968.45;;;887.35;;
17197;SDS011;8715;51.010;6.812;2023-06-14T08:35:45;966.60;;;885.80;;
17197;SDS011;8715;51.010;6.812;2023-06-14T08:38:30;965.50;;;885.03;;
17197;SDS011;8715;51.010;6.812;2023-06-14T08:41:19;965.88;;;885.33;;
17197;SDS011;8715;51.010;6.812;2023-06-14T08:44:05;968.80;;;887.58;;
17197;SDS011;8715;51.010;6.812;2023-06-14T08:46:51;973.58;;;891.55;;
17197;SDS011;8715;51.010;6.812;2023-06-14T08:49:37;968.88;;;887.05;;
17197;SDS011;8715;51.010;6.812;2023-06-14T08:52:24;968.22;;;886.47;;
17197;SDS011;8715;51.010;6.812;2023-06-14T08:55:14;968.92;;;887.05;;
17197;SDS011;8715;51.010;6.812;2023-06-14T08:58:01;965.33;;;883.95;;
17197;SDS011;8715;51.010;6.812;2023-06-14T09:00:47;970.60;;;888.78;;
17197;SDS011;8715;51.010;6.812;2023-06-14T09:03:33;967.47;;;886.08;;
17197;SDS011;8715;51.010;6.812;2023-06-14T09:06:18;966.58;;;885.45;;
17197;SDS011;8715;51.010;6.812;2023-06-14T09:09:07;965.83;;;884.38;;
17197;SDS011;8715;51.010;6.812;2023-06-14T09:11:53;966.13;;;884.75;;
17197;SDS011;8715;51.010;6.812;2023-06-14T09:14:38;971.58;;;889.63;;
17197;SDS011;8715;51.010;6.812;2023-06-14T09:17:25;970.70;;;888.88;;
17197;SDS011;8715;51.010;6.812;2023-06-14T09:20:11;972.03;;;890.10;;
17197;SDS011;8715;51.010;6.812;2023-06-14T09:23:01;971.85;;;889.55;;
17197;SDS011;8715;51.010;6.812;2023-06-14T09:25:50;969.70;;;887.38;;
17197;SDS011;8715;51.010;6.812;2023-06-14T09:28:36;974.72;;;891.78;;
17197;SDS011;8715;51.010;6.812;2023-06-14T09:31:21;972.03;;;889.25;;
17197;SDS011;8715;51.010;6.812;2023-06-14T09:34:06;976.40;;;893.17;;
17197;SDS011;8715;51.010;6.812;2023-06-14T09:36:52;972.92;;;890.22;;
17197;SDS011;8715;51.010;6.812;2023-06-14T09:39:46;971.97;;;888.80;;
17197;SDS011;8715;51.010;6.812;2023-06-14T09:42:35;974.55;;;891.28;;
17197;SDS011;8715;51.010;6.812;2023-06-14T09:45:21;974.38;;;890.95;;
17197;SDS011;8715;51.010;6.812;2023-06-14T09:48:06;976.92;;;892.95;;
17197;SDS011;8715;51.010;6.812;2023-06-14T09:50:51;978.58;;;894.78;;
17197;SDS011;8715;51.010;6.812;2023-06-14T09:53:38;976.75;;;893.22;;
17197;SDS011;8715;51.010;6.812;2023-06-14T09:56:26;972.17;;;889.42;;
17197;SDS011;8715;51.010;6.812;2023-06-14T09:59:14;971.80;;;889.40;;
17197;SDS011;8715;51.010;6.812;2023-06-14T10:04:53;971.65;;;889.28;;
17197;SDS011;8715;51.010;6.812;2023-06-14T10:07:45;969.58;;;887.42;;
17197;SDS011;8715;51.010;6.812;2023-06-14T10:10:33;968.40;;;886.45;;
17197;SDS011;8715;51.010;6.812;2023-06-14T10:13:19;969.53;;;887.22;;
17197;SDS011;8715;51.010;6.812;2023-06-14T10:16:07;970.45;;;888.45;;
17197;SDS011;8715;51.010;6.812;2023-06-14T10:18:59;976.30;;;893.67;;
17197;SDS011;8715;51.010;6.812;2023-06-14T10:21:49;970.88;;;887.92;;
17197;SDS011;8715;51.010;6.812;2023-06-14T10:24:40;974.08;;;891.08;;
17197;SDS011;8715;51.010;6.812;2023-06-14T10:27:27;972.30;;;889.63;;
17197;SDS011;8715;51.010;6.812;2023-06-14T10:30:14;972.67;;;889.75;;
17197;SDS011;8715;51.010;6.812;2023-06-14T10:33:04;971.90;;;888.67;;
17197;SDS011;8715;51.010;6.812;2023-06-14T10:35:54;975.53;;;892.10;;
17197;SDS011;8715;51.010;6.812;2023-06-14T10:38:56;977.35;;;893.65;;
17197;SDS011;8715;51.010;6.812;2023-06-14T10:41:42;974.38;;;890.90;;
17197;SDS011;8715;51.010;6.812;2023-06-14T10:44:33;975.78;;;892.17;;
17197;SDS011;8715;51.010;6.812;2023-06-14T10:47:23;977.30;;;893.38;;
17197;SDS011;8715;51.010;6.812;2023-06-14T10:50:11;973.22;;;889.95;;
17197;SDS011;8715;51.010;6.812;2023-06-14T10:52:58;974.25;;;890.58;;
17197;SDS011;8715;51.010;6.812;2023-06-14T10:55:44;978.92;;;894.92;;
17197;SDS011;8715;51.010;6.812;2023-06-14T10:58:29;974.83;;;890.85;;
17197;SDS011;8715;51.010;6.812;2023-06-14T11:01:15;976.60;;;892.38;;
17197;SDS011;8715;51.010;6.812;2023-06-14T11:04:06;976.53;;;892.63;;
17197;SDS011;8715;51.010;6.812;2023-06-14T11:06:53;974.35;;;890.92;;
17197;SDS011;8715;51.010;6.812;2023-06-14T11:09:54;973.05;;;889.08;;
17197;SDS011;8715;51.010;6.812;2023-06-14T11:12:47;972.58;;;888.92;;
17197;SDS011;8715;51.010;6.812;2023-06-14T11:15:34;975.67;;;891.65;;
17197;SDS011;8715;51.010;6.812;2023-06-14T11:18:21;971.33;;;887.80;;
17197;SDS011;8715;51.010;6.812;2023-06-14T11:21:07;976.80;;;892.97;;
17197;SDS011;8715;51.010;6.812;2023-06-14T11:23:55;975.38;;;891.80;;
17197;SDS011;8715;51.010;6.812;2023-06-14T11:26:40;978.30;;;894.08;;
17197;SDS011;8715;51.010;6.812;2023-06-14T11:29:25;975.67;;;891.28;;
17197;SDS011;8715;51.010;6.812;2023-06-14T11:32:13;974.45;;;890.20;;
17197;SDS011;8715;51.010;6.812;2023-06-14T11:34:58;976.95;;;891.95;;
17197;SDS011;8715;51.010;6.812;2023-06-14T11:37:44;979.25;;;894.35;;
17197;SDS011;8715;51.010;6.812;2023-06-14T11:40:30;977.30;;;892.33;;
17197;SDS011;8715;51.010;6.812;2023-06-14T11:43:16;980.13;;;895.33;;
17197;SDS011;8715;51.010;6.812;2023-06-14T11:46:01;982.67;;;897.42;;
17197;SDS011;8715;51.010;6.812;2023-06-14T11:48:46;978.47;;;893.55;;
17197;SDS011;8715;51.010;6.812;2023-06-14T11:51:32;979.97;;;894.75;;
17197;SDS011;8715;51.010;6.812;2023-06-14T11:54:17;982.53;;;897.20;;
17197;SDS011;8715;51.010;6.812;2023-06-14T11:57:04;981.28;;;896.00;;
17197;SDS011;8715;51.010;6.812;2023-06-14T11:59:51;977.40;;;892.05;;
17197;SDS011;8715;51.010;6.812;2023-06-14T12:02:36;974.67;;;889.50;;
17197;SDS011;8715;51.010;6.812;2023-06-14T12:05:22;978.58;;;893.28;;
17197;SDS011;8715;51.010;6.812;2023-06-14T12:08:07;979.45;;;894.15;;
17197;SDS011;8715;51.010;6.812;2023-06-14T12:10:52;979.85;;;893.47;;
17197;SDS011;8715;51.010;6.812;2023-06-14T12:13:39;978.72;;;892.88;;
17197;SDS011;8715;51.010;6.812;2023-06-14T12:16:29;980.33;;;894.13;;
17197;SDS011;8715;51.010;6.812;2023-06-14T12:19:15;983.95;;;897.47;;
17197;SDS011;8715;51.010;6.812;2023-06-14T12:22:03;983.38;;;897.65;;
17197;SDS011;8715;51.010;6.812;2023-06-14T12:24:49;981.95;;;895.97;;
17197;SDS011;8715;51.010;6.812;2023-06-14T12:27:35;982.75;;;897.58;;
17197;SDS011;8715;51.010;6.812;2023-06-14T12:30:21;979.08;;;893.83;;
17197;SDS011;8715;51.010;6.812;2023-06-14T12:33:07;978.72;;;893.50;;
17197;SDS011;8715;51.010;6.812;2023-06-14T12:35:53;979.90;;;894.10;;
17197;SDS011;8715;51.010;6.812;2023-06-14T12:38:39;983.95;;;897.70;;
17197;SDS011;8715;51.010;6.812;2023-06-14T12:41:25;982.70;;;896.30;;
17197;SDS011;8715;51.010;6.812;2023-06-14T12:44:10;982.47;;;896.45;;
17197;SDS011;8715;51.010;6.812;2023-06-14T12:46:57;983.15;;;896.97;;
17197;SDS011;8715;51.010;6.812;2023-06-14T12:49:42;982.10;;;896.33;;
17197;SDS011;8715;51.010;6.812;2023-06-14T12:52:28;980.78;;;895.00;;
17197;SDS011;8715;51.010;6.812;2023-06-14T12:55:14;979.85;;;893.83;;
17197;SDS011;8715;51.010;6.812;2023-06-14T12:57:59;982.03;;;895.55;;
17197;SDS011;8715;51.010;6.812;2023-06-14T13:00:44;979.47;;;893.50;;
17197;SDS011;8715;51.010;6.812;2023-06-14T13:03:31;982.38;;;895.95;;
17197;SDS011;8715;51.010;6.812;2023-06-14T13:06:17;981.50;;;895.13;;
17197;SDS011;8715;51.010;6.812;2023-06-14T13:09:04;983.03;;;896.25;;
17197;SDS011;8715;51.010;6.812;2023-06-14T13:11:50;982.40;;;895.60;;
17197;SDS011;8715;51.010;6.812;2023-06-14T13:14:35;982.13;;;895.72;;
17197;SDS011;8715;51.010;6.812;2023-06-14T13:17:20;980.88;;;895.05;;
17197;SDS011;8715;51.010;6.812;2023-06-14T13:20:07;978.55;;;892.60;;
17197;SDS011;8715;51.010;6.812;2023-06-14T13:22:53;981.13;;;894.53;;
17197;SDS011;8715;51.010;6.812;2023-06-14T13:25:39;986.65;;;899.83;;
17197;SDS011;8715;51.010;6.812;2023-06-14T13:28:25;983.13;;;896.28;;
17197;SDS011;8715;51.010;6.812;2023-06-14T13:31:11;985.88;;;898.42;;
17197;SDS011;8715;51.010;6.812;2023-06-14T13:33:56;983.88;;;896.17;;
17197;SDS011;8715;51.010;6.812;2023-06-14T13:36:43;985.28;;;897.20;;
17197;SDS011;8715;51.010;6.812;2023-06-14T13:39:28;984.47;;;896.75;;
17197;SDS011;8715;51.010;6.812;2023-06-14T13:42:13;985.90;;;898.03;;
17197;SDS011;8715;51.010;6.812;2023-06-14T13:44:59;986.13;;;898.33;;
17197;SDS011;8715;51.010;6.812;2023-06-14T13:47:44;985.20;;;897.63;;
17197;SDS011;8715;51.010;6.812;2023-06-14T13:50:32;984.45;;;896.72;;
17197;SDS011;8715;51.010;6.812;2023-06-14T13:53:19;985.10;;;897.50;;
17197;SDS011;8715;51.010;6.812;2023-06-14T13:56:04;982.60;;;895.35;;
17197;SDS011;8715;51.010;6.812;2023-06-14T13:58:50;983.95;;;896.92;;
17197;SDS011;8715;51.010;6.812;2023-06-14T14:01:36;982.22;;;895.60;;
17197;SDS011;8715;51.010;6.812;2023-06-14T14:04:21;979.17;;;892.80;;
17197;SDS011;8715;51.010;6.812;2023-06-14T14:07:06;982.75;;;896.22;;
17197;SDS011;8715;51.010;6.812;2023-06-14T14:09:54;985.08;;;898.08;;
17197;SDS011;8715;51.010;6.812;2023-06-14T14:12:41;986.42;;;899.15;;
17197;SDS011;8715;51.010;6.812;2023-06-14T14:15:26;981.10;;;894.97;;
17197;SDS011;8715;51.010;6.812;2023-06-14T14:18:12;979.83;;;893.85;;
17197;SDS011;8715;51.010;6.812;2023-06-14T14:20:57;982.53;;;896.92;;
17197;SDS011;8715;51.010;6.812;2023-06-14T14:23:44;979.30;;;894.05;;
17197;SDS011;8715;51.010;6.812;2023-06-14T14:26:30;983.90;;;898.50;;
17197;SDS011;8715;51.010;6.812;2023-06-14T14:29:16;980.78;;;894.90;;
17197;SDS011;8715;51.010;6.812;2023-06-14T14:32:02;980.13;;;894.55;;
17197;SDS011;8715;51.010;6.812;2023-06-14T14:34:47;979.90;;;894.63;;
17197;SDS011;8715;51.010;6.812;2023-06-14T14:37:32;979.28;;;894.10;;
17197;SDS011;8715;51.010;6.812;2023-06-14T14:40:17;977.13;;;892.45;;
17197;SDS011;8715;51.010;6.812;2023-06-14T14:43:04;981.08;;;896.13;;
17197;SDS011;8715;51.010;6.812;2023-06-14T14:45:49;978.22;;;893.58;;
17197;SDS011;8715;51.010;6.812;2023-06-14T14:48:35;977.90;;;893.00;;
17197;SDS011;8715;51.010;6.812;2023-06-14T14:51:20;980.20;;;894.53;;
17197;SDS011;8715;51.010;6.812;2023-06-14T14:54:05;983.63;;;896.85;;
17197;SDS011;8715;51.010;6.812;2023-06-14T14:56:51;983.85;;;897.28;;
17197;SDS011;8715;51.010;6.812;2023-06-14T14:59:37;983.58;;;896.65;;
17197;SDS011;8715;51.010;6.812;2023-06-14T15:02:23;984.10;;;896.50;;
17197;SDS011;8715;51.010;6.812;2023-06-14T15:05:08;983.35;;;896.88;;
17197;SDS011;8715;51.010;6.812;2023-06-14T15:07:53;984.72;;;897.95;;
17197;SDS011;8715;51.010;6.812;2023-06-14T15:10:39;983.08;;;896.72;;
17197;SDS011;8715;51.010;6.812;2023-06-14T15:13:25;983.42;;;897.35;;
17197;SDS011;8715;51.010;6.812;2023-06-14T15:16:13;981.58;;;895.47;;
17197;SDS011;8715;51.010;6.812;2023-06-14T15:18:59;980.13;;;894.10;;
17197;SDS011;8715;51.010;6.812;2023-06-14T15:21:44;980.90;;;895.33;;
17197;SDS011;8715;51.010;6.812;2023-06-14T15:24:29;980.65;;;894.72;;
17197;SDS011;8715;51.010;6.812;2023-06-14T15:27:16;977.92;;;892.30;;
17197;SDS011;8715;51.010;6.812;2023-06-14T15:30:01;982.17;;;896.55;;
17197;SDS011;8715;51.010;6.812;2023-06-14T15:32:48;979.65;;;894.75;;
17197;SDS011;8715;51.010;6.812;2023-06-14T15:35:34;978.63;;;893.58;;
17197;SDS011;8715;51.010;6.812;2023-06-14T15:38:19;982.35;;;896.63;;
17197;SDS011;8715;51.010;6.812;2023-06-14T15:41:05;979.72;;;893.88;;
17197;SDS011;8715;51.010;6.812;2023-06-14T15:43:51;980.28;;;894.53;;
17197;SDS011;8715;51.010;6.812;2023-06-14T15:46:37;981.58;;;895.28;;
17197;SDS011;8715;51.010;6.812;2023-06-14T15:49:23;982.60;;;896.45;;
17197;SDS011;8715;51.010;6.812;2023-06-14T15:52:09;983.28;;;897.55;;
17197;SDS011;8715;51.010;6.812;2023-06-14T15:54:55;979.05;;;893.83;;
17197;SDS011;8715;51.010;6.812;2023-06-14T15:57:40;979.83;;;894.33;;
17197;SDS011;8715;51.010;6.812;2023-06-14T16:00:25;981.15;;;896.05;;
17197;SDS011;8715;51.010;6.812;2023-06-14T16:03:11;975.03;;;889.85;;